createdAt,value
2024-01-26T00:01:28.657Z,99391.22
2024-01-26T00:04:34.734Z,99386.16
2024-01-26T00:07:40.709Z,99385.30
2024-01-26T00:10:46.482Z,99386.65
2024-01-26T00:13:52.149Z,99391.74
2024-01-26T00:16:57.823Z,99399.27
2024-01-26T00:20:03.492Z,99400.79
2024-01-26T00:23:09.176Z,99399.63
2024-01-26T00:26:16.117Z,99408.11
2024-01-26T00:29:22.320Z,99412.22
2024-01-26T00:32:27.986Z,99411.27
2024-01-26T00:35:33.842Z,99415.86
2024-01-26T00:38:39.478Z,99417.86
2024-01-26T00:41:45.100Z,99424.59
2024-01-26T00:44:50.707Z,99423.40
2024-01-26T00:47:56.409Z,99422.16
2024-01-26T00:51:02.842Z,99428.28
2024-01-26T00:54:08.599Z,99430.95
2024-01-26T00:57:15.323Z,99432.88
2024-01-26T01:00:21.585Z,99428.29
2024-01-26T01:03:27.491Z,99425.73
2024-01-26T01:06:33.307Z,99426.27
2024-01-26T01:09:41.558Z,99425.27
2024-01-26T01:12:47.877Z,99429.59
2024-01-26T01:15:53.625Z,99440.55
2024-01-26T01:18:59.392Z,99442.23
2024-01-26T01:22:05.365Z,99453.34
2024-01-26T01:25:13.336Z,99461.75
2024-01-26T01:28:19.052Z,99461.95
2024-01-26T01:31:24.716Z,99465.89
2024-01-26T01:34:30.701Z,99470.77
2024-01-26T01:37:36.457Z,99473.44
2024-01-26T01:40:42.221Z,99466.49
2024-01-26T01:43:57.181Z,99469.89
2024-01-26T01:47:02.821Z,99475.55
2024-01-26T01:50:10.001Z,99476.28
2024-01-26T01:53:17.174Z,99471.51
2024-01-26T01:56:25.630Z,99466.99
2024-01-26T01:59:32.401Z,99469.63
2024-01-26T02:02:38.499Z,99471.63
2024-01-26T02:05:45.520Z,99470.35
2024-01-26T02:08:51.232Z,99471.59
2024-01-26T02:11:57.499Z,99474.46
2024-01-26T02:15:01.781Z,99474.80
2024-01-26T02:18:08.349Z,99474.80
2024-01-26T02:21:14.031Z,99470.63
2024-01-26T02:24:19.991Z,99471.70
2024-01-26T02:27:25.986Z,99472.21
2024-01-26T02:30:34.984Z,99470.19
2024-01-26T02:33:40.798Z,99473.17
2024-01-26T02:36:46.588Z,99472.40
2024-01-26T02:39:52.412Z,99472.83
2024-01-26T02:42:58.022Z,99479.37
2024-01-26T02:46:09.995Z,99479.81
2024-01-26T02:49:16.077Z,99484.11
2024-01-26T02:52:22.277Z,99481.17
2024-01-26T02:55:27.914Z,99483.42
2024-01-26T02:58:33.586Z,99488.09
2024-01-26T03:01:39.252Z,99489.80
2024-01-26T03:04:44.850Z,99486.13
2024-01-26T03:07:50.520Z,99484.61
2024-01-26T03:10:56.132Z,99489.06
2024-01-26T03:14:01.781Z,99483.61
2024-01-26T03:17:07.781Z,99484.27
2024-01-26T03:20:15.166Z,99492.61
2024-01-26T03:23:20.900Z,99493.92
2024-01-26T03:26:26.566Z,99498.33
2024-01-26T03:29:32.232Z,99499.98
2024-01-26T03:32:38.086Z,99504.19
2024-01-26T03:35:43.809Z,99507.26
2024-01-26T03:38:49.535Z,99506.19
2024-01-26T03:41:55.614Z,99512.24
2024-01-26T03:45:02.054Z,99515.98
2024-01-26T03:48:07.211Z,99522.68
2024-01-26T03:51:13.456Z,99530.82
2024-01-26T03:54:17.715Z,99523.23
2024-01-26T03:57:24.127Z,99521.91
2024-01-26T04:00:29.808Z,99520.09
2024-01-26T04:03:35.622Z,99519.80
2024-01-26T04:06:43.813Z,99526.55
2024-01-26T04:09:49.485Z,99528.67
2024-01-26T04:12:55.089Z,99528.65
2024-01-26T04:16:00.770Z,99529.17
2024-01-26T04:19:06.563Z,99535.05
2024-01-26T04:22:12.480Z,99542.70
2024-01-26T04:25:18.296Z,99549.17
2024-01-26T04:28:23.964Z,99553.64
2024-01-26T04:31:29.847Z,99557.15
2024-01-26T04:34:39.101Z,99559.98
2024-01-26T04:37:45.173Z,99566.66
2024-01-26T04:40:50.849Z,99569.29
2024-01-26T04:43:56.735Z,99569.75
2024-01-26T04:47:02.390Z,99576.32
2024-01-26T04:50:09.090Z,99577.64
2024-01-26T04:53:16.629Z,99577.51
2024-01-26T04:56:22.997Z,99582.31
2024-01-26T04:59:27.436Z,99587.85
2024-01-26T05:02:33.134Z,99586.69
2024-01-26T05:05:38.910Z,99589.70
2024-01-26T05:08:45.257Z,99592.92
2024-01-26T05:11:51.254Z,99590.98
2024-01-26T05:14:56.948Z,99588.10
2024-01-26T05:18:02.795Z,99588.52
2024-01-26T05:21:09.456Z,99590.55
2024-01-26T05:24:15.241Z,99591.94
2024-01-26T05:27:20.913Z,99592.77
2024-01-26T05:30:27.652Z,99596.10
2024-01-26T05:33:33.619Z,99598.85
2024-01-26T05:36:44.300Z,99602.02
2024-01-26T05:39:50.070Z,99612.05
2024-01-26T05:42:55.691Z,99614.82
2024-01-26T05:46:01.338Z,99607.77
2024-01-26T05:49:09.354Z,99609.43
2024-01-26T05:52:15.836Z,99611.47
2024-01-26T05:55:21.621Z,99608.61
2024-01-26T05:58:27.466Z,99611.43
2024-01-26T06:01:33.169Z,99619.17
2024-01-26T06:04:38.803Z,99618.54
2024-01-26T06:07:44.476Z,99618.42
2024-01-26T06:10:50.197Z,99621.48
2024-01-26T06:13:55.810Z,99621.01
2024-01-26T06:17:01.481Z,99623.77
2024-01-26T06:20:09.178Z,99620.80
2024-01-26T06:23:14.896Z,99624.45
2024-01-26T06:26:21.400Z,99624.27
2024-01-26T06:29:27.156Z,99626.58
2024-01-26T06:32:32.947Z,99626.77
2024-01-26T06:35:39.454Z,99625.55
2024-01-26T06:38:45.297Z,99625.23
2024-01-26T06:41:51.929Z,99628.12
2024-01-26T06:44:57.893Z,99629.58
2024-01-26T06:48:03.828Z,99622.45
2024-01-26T06:51:10.143Z,99626.49
2024-01-26T06:54:15.962Z,99629.70
2024-01-26T06:57:22.276Z,99632.51
2024-01-26T07:00:28.824Z,99636.59
2024-01-26T07:03:34.620Z,99638.05
2024-01-26T07:06:40.503Z,99642.25
2024-01-26T07:09:46.366Z,99643.17
2024-01-26T07:12:52.088Z,99642.13
2024-01-26T07:15:57.735Z,99640.25
2024-01-26T07:19:03.471Z,99643.27
2024-01-26T07:22:09.328Z,99644.17
2024-01-26T07:25:20.300Z,99646.46
2024-01-26T07:28:26.084Z,99645.02
2024-01-26T07:31:31.753Z,99644.34
2024-01-26T07:34:37.622Z,99646.26
2024-01-26T07:37:43.409Z,99645.56
2024-01-26T07:40:49.012Z,99640.17
2024-01-26T07:43:54.660Z,99643.13
2024-01-26T07:47:00.298Z,99645.58
2024-01-26T07:50:07.164Z,99647.59
2024-01-26T07:53:13.799Z,99652.82
2024-01-26T07:56:19.555Z,99653.25
2024-01-26T07:59:25.320Z,99652.55
2024-01-26T08:02:31.981Z,99654.94
2024-01-26T08:05:38.064Z,99660.91
2024-01-26T08:08:44.092Z,99660.91
2024-01-26T08:11:50.840Z,99665.88
2024-01-26T08:15:01.643Z,99665.84
2024-01-26T08:18:09.198Z,99666.52
2024-01-26T08:21:15.059Z,99672.59
2024-01-26T08:24:21.280Z,99672.52
2024-01-26T08:27:27.312Z,99674.77
2024-01-26T08:30:33.254Z,99680.87
2024-01-26T08:33:39.239Z,99681.52
2024-01-26T08:36:45.116Z,99684.14
2024-01-26T08:39:51.080Z,99684.05
2024-01-26T08:42:56.735Z,99682.76
2024-01-26T08:46:02.388Z,99686.36
2024-01-26T08:49:08.821Z,99684.12
2024-01-26T08:52:14.606Z,99682.12
2024-01-26T08:55:20.538Z,99687.88
2024-01-26T08:58:26.419Z,99694.52
2024-01-26T09:01:32.072Z,99697.33
2024-01-26T09:04:38.285Z,99697.25
2024-01-26T09:07:42.660Z,99700.14
2024-01-26T09:10:48.455Z,99701.88
2024-01-26T09:13:54.144Z,99702.54
2024-01-26T09:17:02.057Z,99706.76
2024-01-26T09:20:10.682Z,99707.23
2024-01-26T09:23:16.663Z,99708.08
2024-01-26T09:26:22.852Z,99707.42
2024-01-26T09:29:27.781Z,99705.75
2024-01-26T09:32:35.488Z,99701.05
2024-01-26T09:35:41.442Z,99692.80
2024-01-26T09:38:47.171Z,99693.96
2024-01-26T09:41:52.993Z,99688.75
2024-01-26T09:44:59.108Z,99688.52
2024-01-26T09:48:08.369Z,99682.38
2024-01-26T09:51:14.573Z,99678.32
2024-01-26T09:54:22.822Z,99677.07
2024-01-26T09:57:29.904Z,99677.66
2024-01-26T10:00:35.767Z,99679.34
2024-01-26T10:03:41.577Z,99680.02
2024-01-26T10:06:49.700Z,99679.52
2024-01-26T10:09:55.742Z,99675.27
2024-01-26T10:13:01.866Z,99672.14
2024-01-26T10:16:13.771Z,99664.27
2024-01-26T10:19:27.196Z,99654.71
2024-01-26T10:22:33.407Z,99651.58
2024-01-26T10:25:41.423Z,99655.30
2024-01-26T10:28:49.758Z,99655.25
2024-01-26T10:31:55.716Z,99651.31
2024-01-26T10:35:04.066Z,99650.77
2024-01-26T10:38:12.441Z,99647.20
2024-01-26T10:41:22.888Z,99646.50
2024-01-26T10:44:29.159Z,99646.92
2024-01-26T10:47:36.751Z,99643.17
2024-01-26T10:50:43.499Z,99632.52
2024-01-26T10:53:50.197Z,99623.60
2024-01-26T10:56:56.423Z,99613.15
2024-01-26T11:00:00.977Z,99613.21
2024-01-26T11:03:07.801Z,99617.39
2024-01-26T11:06:15.216Z,99621.21
2024-01-26T11:09:22.331Z,99620.41
2024-01-26T11:12:31.283Z,99617.91
2024-01-26T11:15:38.662Z,99613.58
2024-01-26T11:18:44.381Z,99607.06
2024-01-26T11:21:50.821Z,99593.05
2024-01-26T11:24:56.668Z,99590.30
2024-01-26T11:28:01.544Z,99587.29
2024-01-26T11:31:08.126Z,99588.71
2024-01-26T11:34:23.288Z,99588.66
2024-01-26T11:37:31.007Z,99579.01
2024-01-26T11:40:37.477Z,99570.59
2024-01-26T11:43:47.646Z,99565.26
2024-01-26T11:46:54.055Z,99566.42
2024-01-26T11:50:00.071Z,99562.10
2024-01-26T11:53:06.740Z,99558.81
2024-01-26T11:56:13.077Z,99557.21
2024-01-26T11:59:19.008Z,99550.19
2024-01-26T12:02:24.778Z,99546.76
2024-01-26T12:05:31.405Z,99539.04
2024-01-26T12:08:37.490Z,99536.94
2024-01-26T12:11:43.890Z,99532.79
2024-01-26T12:14:50.198Z,99527.52
2024-01-26T12:17:54.376Z,99528.80
2024-01-26T12:21:01.702Z,99529.52
2024-01-26T12:24:15.833Z,99527.92
2024-01-26T12:27:22.360Z,99527.04
2024-01-26T12:30:27.468Z,99529.92
2024-01-26T12:33:36.452Z,99515.71
2024-01-26T12:36:42.548Z,99511.47
2024-01-26T12:40:38.132Z,99512.86
2024-01-26T12:43:45.114Z,99515.48
2024-01-26T12:46:50.961Z,99512.31
2024-01-26T12:49:56.832Z,99507.96
2024-01-26T12:53:02.862Z,99508.11
2024-01-26T12:56:10.057Z,99500.91
2024-01-26T12:59:16.009Z,99491.80
2024-01-26T13:02:21.882Z,99490.45
2024-01-26T13:05:27.711Z,99490.11
2024-01-26T13:08:33.408Z,99486.49
2024-01-26T13:11:40.491Z,99477.55
2024-01-26T13:14:48.099Z,99475.30
2024-01-26T13:17:54.034Z,99473.01
2024-01-26T13:21:00.261Z,99465.52
2024-01-26T13:24:06.918Z,99456.60
2024-01-26T13:27:14.357Z,99447.21
2024-01-26T13:30:25.245Z,99436.77
2024-01-26T13:33:32.339Z,99431.79
2024-01-26T13:36:38.096Z,99426.06
2024-01-26T13:39:43.747Z,99420.41
2024-01-26T13:42:50.214Z,99422.02
2024-01-26T13:45:55.963Z,99412.88
2024-01-26T13:49:01.878Z,99407.59
2024-01-26T13:52:09.584Z,99397.98
2024-01-26T13:55:16.501Z,99398.08
2024-01-26T13:58:22.405Z,99390.17
2024-01-26T14:01:28.271Z,99385.80
2024-01-26T14:04:34.106Z,99379.10
2024-01-26T14:07:40.061Z,99372.70
2024-01-26T14:10:45.902Z,99372.95
2024-01-26T14:13:51.782Z,99373.88
2024-01-26T14:16:58.791Z,99373.35
2024-01-26T14:20:04.960Z,99369.36
2024-01-26T14:23:10.668Z,99362.08
2024-01-26T14:26:16.333Z,99360.42
2024-01-26T14:29:22.294Z,99356.79
2024-01-26T14:32:28.289Z,99355.99
2024-01-26T14:35:34.133Z,99349.34
2024-01-26T14:38:39.886Z,99348.25
2024-01-26T14:41:45.567Z,99345.47
2024-01-26T14:44:51.439Z,99334.71
2024-01-26T14:47:57.128Z,99327.92
2024-01-26T14:51:02.902Z,99333.30
2024-01-26T14:54:08.657Z,99329.73
2024-01-26T14:57:14.437Z,99312.06
2024-01-26T15:00:22.748Z,99304.92
2024-01-26T15:03:29.941Z,99298.15
2024-01-26T15:06:36.267Z,99292.35
2024-01-26T15:09:41.998Z,99289.27
2024-01-26T15:12:47.730Z,99285.34
2024-01-26T15:15:53.933Z,99277.84
2024-01-26T15:22:03.632Z,99258.41
2024-01-26T15:25:10.789Z,99258.59
2024-01-26T15:28:20.470Z,99256.13
2024-01-26T15:31:26.272Z,99247.33
2024-01-26T15:34:32.473Z,99236.42
2024-01-26T15:37:37.423Z,99233.96
2024-01-26T15:40:43.981Z,99243.05
2024-01-26T15:43:49.635Z,99246.29
2024-01-26T15:46:55.366Z,99245.26
2024-01-26T15:50:01.196Z,99249.03
2024-01-26T15:53:07.568Z,99249.81
2024-01-26T15:56:13.566Z,99251.99
2024-01-26T15:59:19.189Z,99250.85
2024-01-26T16:02:24.827Z,99246.16
2024-01-26T16:05:30.475Z,99233.56
2024-01-26T16:08:39.371Z,99229.28
2024-01-26T16:11:45.093Z,99221.52
2024-01-26T16:14:50.847Z,99216.65
2024-01-26T16:17:56.815Z,99208.89
2024-01-26T16:21:02.784Z,99195.95
2024-01-26T16:24:09.825Z,99186.33
2024-01-26T16:27:15.620Z,99176.21
2024-01-26T16:30:21.936Z,99164.20
2024-01-26T16:33:27.891Z,99151.68
2024-01-26T16:36:34.717Z,99141.10
2024-01-26T16:39:40.565Z,99133.11
2024-01-26T16:42:46.359Z,99135.39
2024-01-26T16:45:52.060Z,99133.77
2024-01-26T16:48:59.830Z,99124.16
2024-01-26T16:52:06.021Z,99108.64
2024-01-26T16:55:12.594Z,99107.69
2024-01-26T16:58:18.294Z,99108.77
2024-01-26T17:01:24.392Z,99110.88
2024-01-26T17:04:30.045Z,99106.60
2024-01-26T17:07:36.452Z,99102.76
2024-01-26T17:10:42.206Z,99106.54
2024-01-26T17:13:47.842Z,99099.72
2024-01-26T17:16:54.592Z,99099.83
2024-01-26T17:20:00.322Z,99101.63
2024-01-26T17:23:06.399Z,99092.45
2024-01-26T17:26:12.045Z,99088.52
2024-01-26T17:29:17.673Z,99077.98
2024-01-26T17:32:23.358Z,99077.91
2024-01-26T17:35:32.026Z,99064.96
2024-01-26T17:38:38.681Z,99049.34
2024-01-26T17:41:43.375Z,99050.14
2024-01-26T17:44:50.503Z,99048.55
2024-01-26T17:47:56.317Z,99045.08
2024-01-26T17:51:02.241Z,99039.82
2024-01-26T17:54:08.551Z,99030.98
2024-01-26T17:57:12.730Z,99020.42
2024-01-26T18:00:20.014Z,99015.13
2024-01-26T18:03:25.813Z,99018.36
2024-01-26T18:06:31.802Z,99028.31
2024-01-26T18:09:37.591Z,99030.21
2024-01-26T18:12:43.350Z,99032.11
2024-01-26T18:15:49.169Z,99013.59
2024-01-26T18:18:55.200Z,98999.92
2024-01-26T18:22:01.114Z,98995.50
2024-01-26T18:25:08.611Z,99001.55
2024-01-26T18:28:14.396Z,99000.38
2024-01-26T18:31:20.950Z,98998.37
2024-01-26T18:34:27.031Z,98990.34
2024-01-26T18:37:32.847Z,98984.95
2024-01-26T18:40:38.494Z,98981.35
2024-01-26T18:43:44.126Z,98977.12
2024-01-26T18:46:49.919Z,98975.63
2024-01-26T18:49:55.708Z,98976.21
2024-01-26T18:53:01.525Z,98969.58
2024-01-26T18:56:08.897Z,98957.37
2024-01-26T18:59:17.685Z,98947.61
2024-01-26T19:02:23.626Z,98944.23
2024-01-26T19:05:29.570Z,98946.63
2024-01-26T19:08:35.588Z,98940.71
2024-01-26T19:11:44.669Z,98938.03
2024-01-26T19:14:50.382Z,98933.02
2024-01-26T19:17:56.223Z,98917.83
2024-01-26T19:21:02.215Z,98913.63
2024-01-26T19:24:09.127Z,98913.61
2024-01-26T19:27:14.927Z,98910.56
2024-01-26T19:30:21.051Z,98910.13
2024-01-26T19:33:26.999Z,98912.59
2024-01-26T19:36:32.855Z,98912.01
2024-01-26T19:39:38.536Z,98916.88
2024-01-26T19:42:44.176Z,98920.80
2024-01-26T19:45:49.785Z,98921.52
2024-01-26T19:48:56.038Z,98922.39
2024-01-26T19:52:01.809Z,98922.38
2024-01-26T19:55:09.646Z,98922.77
2024-01-26T19:58:15.410Z,98918.20
2024-01-26T20:01:21.246Z,98912.67
2024-01-26T20:04:27.208Z,98915.86
2024-01-26T20:07:33.270Z,98914.14
2024-01-26T20:10:40.515Z,98913.77
2024-01-26T20:13:46.586Z,98910.20
2024-01-26T20:16:52.220Z,98910.89
2024-01-26T20:19:59.795Z,98909.41
2024-01-26T20:23:05.881Z,98903.90
2024-01-26T20:26:13.204Z,98897.77
2024-01-26T20:29:18.892Z,98891.13
2024-01-26T20:32:27.354Z,98883.48
2024-01-26T20:35:33.166Z,98875.88
2024-01-26T20:38:39.102Z,98869.20
2024-01-26T20:41:46.753Z,98869.73
2024-01-26T20:44:52.576Z,98869.32
2024-01-26T20:47:59.118Z,98868.77
2024-01-26T20:51:05.034Z,98869.11
2024-01-26T20:54:11.239Z,98866.42
2024-01-26T20:57:18.243Z,98861.38
2024-01-26T21:00:26.326Z,98866.45
2024-01-26T21:03:32.466Z,98876.91
2024-01-26T21:06:43.019Z,98882.52
2024-01-26T21:09:48.800Z,98883.45
2024-01-26T21:12:55.406Z,98884.95
2024-01-26T21:16:01.088Z,98884.70
2024-01-26T21:19:06.912Z,98881.52
2024-01-26T21:22:12.698Z,98876.40
2024-01-26T21:25:18.801Z,98870.19
2024-01-26T21:28:25.461Z,98873.81
2024-01-26T21:31:35.477Z,98881.79
2024-01-26T21:34:41.357Z,98885.48
2024-01-26T21:37:48.605Z,98889.05
2024-01-26T21:40:54.558Z,98893.74
2024-01-26T21:44:02.187Z,98899.15
2024-01-26T21:47:08.747Z,98908.69
2024-01-26T21:50:15.665Z,98914.06
2024-01-26T21:53:21.582Z,98915.20
2024-01-26T21:56:27.720Z,98919.80
2024-01-26T21:59:33.670Z,98922.50
2024-01-26T22:02:39.427Z,98927.34
2024-01-26T22:05:45.474Z,98928.11
2024-01-26T22:08:51.372Z,98931.61
2024-01-26T22:11:57.253Z,98932.30
2024-01-26T22:15:04.589Z,98934.73
2024-01-26T22:18:10.793Z,98939.38
2024-01-26T22:21:14.970Z,98943.34
2024-01-26T22:24:20.640Z,98949.75
2024-01-26T22:27:26.586Z,98956.72
2024-01-26T22:30:32.841Z,98956.81
2024-01-26T22:33:37.137Z,98966.42
2024-01-26T22:36:42.966Z,98972.82
2024-01-26T22:39:49.296Z,98971.50
2024-01-26T22:42:54.943Z,98981.11
2024-01-26T22:46:01.390Z,98987.43
2024-01-26T22:49:07.371Z,98999.83
2024-01-26T22:52:12.095Z,99010.06
2024-01-26T22:55:19.555Z,99015.92
2024-01-26T22:58:25.812Z,99024.84
2024-01-26T23:01:31.987Z,99028.64
2024-01-26T23:04:36.047Z,99033.83
2024-01-26T23:07:41.635Z,99040.23
2024-01-26T23:10:47.275Z,99040.78
2024-01-26T23:13:53.385Z,99040.73
2024-01-26T23:16:58.993Z,99048.58
2024-01-26T23:20:06.284Z,99049.79
2024-01-26T23:23:11.939Z,99049.02
2024-01-26T23:26:17.680Z,99052.40
2024-01-26T23:29:24.639Z,99055.80
2024-01-26T23:32:30.829Z,99062.31
2024-01-26T23:35:37.015Z,99072.25
2024-01-26T23:38:43.069Z,99075.00
2024-01-26T23:41:50.234Z,99073.92
2024-01-26T23:44:57.313Z,99078.00
2024-01-26T23:48:04.264Z,99082.60
2024-01-26T23:51:10.209Z,99081.38
2024-01-26T23:54:16.830Z,99083.86
2024-01-26T23:57:22.566Z,99090.13
